sensor_id;sensor_type;location;lat;lon;timestamp;temperature;humidity
53053;DHT22;38934;52.690;6.184;2022-09-27T00:02:23;9.50;99.90
53053;DHT22;38934;52.690;6.184;2022-09-27T00:04:48;9.40;99.90
53053;DHT22;38934;52.690;6.184;2022-09-27T00:07:14;9.40;99.90
53053;DHT22;38934;52.690;6.184;2022-09-27T00:09:40;9.40;99.90
53053;DHT22;38934;52.690;6.184;2022-09-27T00:12:05;9.40;99.90
53053;DHT22;38934;52.690;6.184;2022-09-27T00:14:31;9.40;99.90
53053;DHT22;38934;52.690;6.184;2022-09-27T00:16:56;9.40;99.90
53053;DHT22;38934;52.690;6.184;2022-09-27T00:19:22;9.40;99.90
53053;DHT22;38934;52.690;6.184;2022-09-27T00:21:48;9.40;99.90
53053;DHT22;38934;52.690;6.184;2022-09-27T00:24:15;9.50;99.90
53053;DHT22;38934;52.690;6.184;2022-09-27T00:26:41;9.50;99.90
53053;DHT22;38934;52.690;6.184;2022-09-27T00:29:08;9.50;99.90
53053;DHT22;38934;52.690;6.184;2022-09-27T00:31:33;9.50;99.90
53053;DHT22;38934;52.690;6.184;2022-09-27T00:34:00;9.90;99.90
53053;DHT22;38934;52.690;6.184;2022-09-27T00:36:26;9.50;99.90
53053;DHT22;38934;52.690;6.184;2022-09-27T00:38:53;9.50;99.90
53053;DHT22;38934;52.690;6.184;2022-09-27T00:41:20;9.40;99.90
53053;DHT22;38934;52.690;6.184;2022-09-27T00:43:47;9.40;99.90
53053;DHT22;38934;52.690;6.184;2022-09-27T00:46:14;9.40;99.90
53053;DHT22;38934;52.690;6.184;2022-09-27T00:48:42;9.40;99.90
53053;DHT22;38934;52.690;6.184;2022-09-27T00:51:08;9.40;99.90
53053;DHT22;38934;52.690;6.184;2022-09-27T00:53:35;9.40;99.90
53053;DHT22;38934;52.690;6.184;2022-09-27T00:56:04;9.30;99.90
53053;DHT22;38934;52.690;6.184;2022-09-27T00:58:33;9.40;99.90
53053;DHT22;38934;52.690;6.184;2022-09-27T01:01:00;9.30;99.90
53053;DHT22;38934;52.690;6.184;2022-09-27T01:03:29;9.30;99.90
53053;DHT22;38934;52.690;6.184;2022-09-27T01:05:56;9.30;99.90
53053;DHT22;38934;52.690;6.184;2022-09-27T01:08:22;9.20;99.90
53053;DHT22;38934;52.690;6.184;2022-09-27T01:10:52;9.20;99.90
53053;DHT22;38934;52.690;6.184;2022-09-27T01:13:22;9.20;99.90
53053;DHT22;38934;52.690;6.184;2022-09-27T01:16:10;9.30;99.90
53053;DHT22;38934;52.690;6.184;2022-09-27T01:19:21;9.20;99.90
53053;DHT22;38934;52.690;6.184;2022-09-27T01:24:01;9.20;99.90
53053;DHT22;38934;52.690;6.184;2022-09-27T01:29:14;9.20;99.90
53053;DHT22;38934;52.690;6.184;2022-09-27T01:31:47;9.20;99.90
53053;DHT22;38934;52.690;6.184;2022-09-27T01:34:31;9.20;99.90
53053;DHT22;38934;52.690;6.184;2022-09-27T01:44:36;9.20;99.90
53053;DHT22;38934;52.690;6.184;2022-09-27T01:47:03;9.30;99.90
53053;DHT22;38934;52.690;6.184;2022-09-27T01:49:34;9.30;99.90
53053;DHT22;38934;52.690;6.184;2022-09-27T01:52:04;9.30;99.90
53053;DHT22;38934;52.690;6.184;2022-09-27T01:54:36;9.30;99.90
53053;DHT22;38934;52.690;6.184;2022-09-27T01:57:03;9.20;99.90
53053;DHT22;38934;52.690;6.184;2022-09-27T02:02:27;9.20;99.90
53053;DHT22;38934;52.690;6.184;2022-09-27T02:21:12;9.00;99.90
53053;DHT22;38934;52.690;6.184;2022-09-27T02:23:43;9.00;99.90
53053;DHT22;38934;52.690;6.184;2022-09-27T02:28:38;9.00;99.90
53053;DHT22;38934;52.690;6.184;2022-09-27T02:31:05;9.00;99.90
53053;DHT22;38934;52.690;6.184;2022-09-27T02:33:44;9.00;99.90
53053;DHT22;38934;52.690;6.184;2022-09-27T02:36:11;9.00;99.90
53053;DHT22;38934;52.690;6.184;2022-09-27T02:38:37;9.00;99.90
53053;DHT22;38934;52.690;6.184;2022-09-27T02:41:03;9.00;99.90
53053;DHT22;38934;52.690;6.184;2022-09-27T02:43:30;9.00;99.90
53053;DHT22;38934;52.690;6.184;2022-09-27T02:57:10;9.00;99.90
53053;DHT22;38934;52.690;6.184;2022-09-27T02:59:37;9.00;99.90
53053;DHT22;38934;52.690;6.184;2022-09-27T03:04:41;9.00;99.90
53053;DHT22;38934;52.690;6.184;2022-09-27T03:07:08;9.00;99.90
53053;DHT22;38934;52.690;6.184;2022-09-27T03:09:44;9.00;99.90
53053;DHT22;38934;52.690;6.184;2022-09-27T03:12:10;9.00;99.90
53053;DHT22;38934;52.690;6.184;2022-09-27T03:14:36;9.00;99.90
53053;DHT22;38934;52.690;6.184;2022-09-27T03:17:02;9.30;99.90
53053;DHT22;38934;52.690;6.184;2022-09-27T03:19:27;9.00;99.90
53053;DHT22;38934;52.690;6.184;2022-09-27T03:21:53;9.80;99.90
53053;DHT22;38934;52.690;6.184;2022-09-27T03:24:20;9.60;99.90
53053;DHT22;38934;52.690;6.184;2022-09-27T03:26:46;8.90;99.90
53053;DHT22;38934;52.690;6.184;2022-09-27T03:29:11;9.30;99.90
53053;DHT22;38934;52.690;6.184;2022-09-27T03:31:37;8.90;99.90
53053;DHT22;38934;52.690;6.184;2022-09-27T03:34:02;8.90;99.90
53053;DHT22;38934;52.690;6.184;2022-09-27T03:36:28;8.80;99.90
53053;DHT22;38934;52.690;6.184;2022-09-27T03:38:53;8.80;99.90
53053;DHT22;38934;52.690;6.184;2022-09-27T03:41:19;8.80;99.90
53053;DHT22;38934;52.690;6.184;2022-09-27T03:43:44;9.00;99.90
53053;DHT22;38934;52.690;6.184;2022-09-27T03:46:10;8.80;99.90
53053;DHT22;38934;52.690;6.184;2022-09-27T03:48:35;8.80;99.90
53053;DHT22;38934;52.690;6.184;2022-09-27T03:51:01;9.30;99.90
53053;DHT22;38934;52.690;6.184;2022-09-27T03:53:28;8.70;99.90
53053;DHT22;38934;52.690;6.184;2022-09-27T03:55:54;8.60;99.90
53053;DHT22;38934;52.690;6.184;2022-09-27T03:58:20;8.60;99.90
53053;DHT22;38934;52.690;6.184;2022-09-27T04:00:45;8.60;99.90
53053;DHT22;38934;52.690;6.184;2022-09-27T04:03:11;8.60;99.90
53053;DHT22;38934;52.690;6.184;2022-09-27T04:05:38;8.60;99.90
53053;DHT22;38934;52.690;6.184;2022-09-27T04:08:03;8.60;99.90
53053;DHT22;38934;52.690;6.184;2022-09-27T04:10:30;8.50;99.90
53053;DHT22;38934;52.690;6.184;2022-09-27T04:12:56;8.50;99.90
53053;DHT22;38934;52.690;6.184;2022-09-27T04:15:21;8.50;99.90
53053;DHT22;38934;52.690;6.184;2022-09-27T04:17:47;8.50;99.90
53053;DHT22;38934;52.690;6.184;2022-09-27T04:20:13;8.50;99.90
53053;DHT22;38934;52.690;6.184;2022-09-27T04:22:39;8.50;99.90
53053;DHT22;38934;52.690;6.184;2022-09-27T04:25:06;8.50;99.90
53053;DHT22;38934;52.690;6.184;2022-09-27T04:27:32;8.40;99.90
53053;DHT22;38934;52.690;6.184;2022-09-27T04:29:58;8.40;99.90
53053;DHT22;38934;52.690;6.184;2022-09-27T04:32:23;8.40;99.90
53053;DHT22;38934;52.690;6.184;2022-09-27T04:34:49;8.90;99.90
53053;DHT22;38934;52.690;6.184;2022-09-27T04:37:33;8.30;99.90
53053;DHT22;38934;52.690;6.184;2022-09-27T04:39:59;8.40;99.90
53053;DHT22;38934;52.690;6.184;2022-09-27T04:42:25;8.30;99.90
53053;DHT22;38934;52.690;6.184;2022-09-27T04:44:51;8.30;99.90
53053;DHT22;38934;52.690;6.184;2022-09-27T04:47:16;8.30;99.90
53053;DHT22;38934;52.690;6.184;2022-09-27T04:49:43;8.30;99.90
53053;DHT22;38934;52.690;6.184;2022-09-27T04:52:08;8.70;99.90
53053;DHT22;38934;52.690;6.184;2022-09-27T04:54:34;8.30;99.90
53053;DHT22;38934;52.690;6.184;2022-09-27T04:56:59;8.20;99.90
53053;DHT22;38934;52.690;6.184;2022-09-27T04:59:25;8.30;99.90
53053;DHT22;38934;52.690;6.184;2022-09-27T05:01:55;8.20;99.90
53053;DHT22;38934;52.690;6.184;2022-09-27T05:04:24;8.10;99.90
53053;DHT22;38934;52.690;6.184;2022-09-27T05:06:49;8.10;99.90
53053;DHT22;38934;52.690;6.184;2022-09-27T05:09:15;8.10;99.90
53053;DHT22;38934;52.690;6.184;2022-09-27T05:11:40;8.10;99.90
53053;DHT22;38934;52.690;6.184;2022-09-27T05:14:06;8.00;99.90
53053;DHT22;38934;52.690;6.184;2022-09-27T05:16:32;8.00;99.90
53053;DHT22;38934;52.690;6.184;2022-09-27T05:18:57;8.00;99.90
53053;DHT22;38934;52.690;6.184;2022-09-27T05:21:23;8.00;99.90
53053;DHT22;38934;52.690;6.184;2022-09-27T05:23:48;8.50;99.90
53053;DHT22;38934;52.690;6.184;2022-09-27T05:26:14;8.70;99.90
53053;DHT22;38934;52.690;6.184;2022-09-27T05:28:39;8.10;99.90
53053;DHT22;38934;52.690;6.184;2022-09-27T05:31:08;7.90;99.90
53053;DHT22;38934;52.690;6.184;2022-09-27T05:33:35;7.90;99.90
53053;DHT22;38934;52.690;6.184;2022-09-27T05:36:00;7.90;99.90
53053;DHT22;38934;52.690;6.184;2022-09-27T05:38:26;8.00;99.90
53053;DHT22;38934;52.690;6.184;2022-09-27T05:40:52;7.90;99.90
53053;DHT22;38934;52.690;6.184;2022-09-27T05:43:17;7.90;99.90
53053;DHT22;38934;52.690;6.184;2022-09-27T05:45:44;8.00;99.90
53053;DHT22;38934;52.690;6.184;2022-09-27T05:48:10;8.00;99.90
53053;DHT22;38934;52.690;6.184;2022-09-27T05:50:37;8.00;99.90
53053;DHT22;38934;52.690;6.184;2022-09-27T05:53:03;8.50;99.90
53053;DHT22;38934;52.690;6.184;2022-09-27T05:55:28;8.00;99.90
53053;DHT22;38934;52.690;6.184;2022-09-27T05:57:58;8.00;99.90
53053;DHT22;38934;52.690;6.184;2022-09-27T06:00:24;8.00;99.90
53053;DHT22;38934;52.690;6.184;2022-09-27T06:02:55;8.00;99.90
53053;DHT22;38934;52.690;6.184;2022-09-27T06:05:22;8.00;99.90
53053;DHT22;38934;52.690;6.184;2022-09-27T06:07:48;8.00;99.90
53053;DHT22;38934;52.690;6.184;2022-09-27T06:10:17;8.00;99.90
53053;DHT22;38934;52.690;6.184;2022-09-27T06:12:43;8.00;99.90
53053;DHT22;38934;52.690;6.184;2022-09-27T06:15:08;8.00;99.90
53053;DHT22;38934;52.690;6.184;2022-09-27T06:17:34;8.00;99.90
53053;DHT22;38934;52.690;6.184;2022-09-27T06:20:00;8.50;99.90
53053;DHT22;38934;52.690;6.184;2022-09-27T06:22:25;8.20;99.90
53053;DHT22;38934;52.690;6.184;2022-09-27T06:24:51;8.30;99.90
53053;DHT22;38934;52.690;6.184;2022-09-27T06:27:16;8.40;99.90
53053;DHT22;38934;52.690;6.184;2022-09-27T06:29:43;9.10;99.90
53053;DHT22;38934;52.690;6.184;2022-09-27T06:32:09;8.70;99.90
53053;DHT22;38934;52.690;6.184;2022-09-27T06:34:35;8.80;99.90
53053;DHT22;38934;52.690;6.184;2022-09-27T06:37:01;9.00;99.90
53053;DHT22;38934;52.690;6.184;2022-09-27T06:39:26;8.90;99.90
53053;DHT22;38934;52.690;6.184;2022-09-27T06:41:53;9.20;99.90
53053;DHT22;38934;52.690;6.184;2022-09-27T06:44:22;9.10;99.90
53053;DHT22;38934;52.690;6.184;2022-09-27T06:46:51;9.20;99.90
53053;DHT22;38934;52.690;6.184;2022-09-27T06:49:18;9.30;99.90
53053;DHT22;38934;52.690;6.184;2022-09-27T06:51:45;9.40;99.90
53053;DHT22;38934;52.690;6.184;2022-09-27T06:54:10;9.50;99.90
53053;DHT22;38934;52.690;6.184;2022-09-27T06:56:36;9.70;99.90
53053;DHT22;38934;52.690;6.184;2022-09-27T06:59:01;9.70;99.90
53053;DHT22;38934;52.690;6.184;2022-09-27T07:01:46;9.80;99.90
53053;DHT22;38934;52.690;6.184;2022-09-27T07:04:11;9.90;99.90
53053;DHT22;38934;52.690;6.184;2022-09-27T07:06:37;10.10;99.90
53053;DHT22;38934;52.690;6.184;2022-09-27T07:09:03;10.20;99.90
53053;DHT22;38934;52.690;6.184;2022-09-27T07:11:31;10.90;99.90
53053;DHT22;38934;52.690;6.184;2022-09-27T07:13:59;10.20;99.90
53053;DHT22;38934;52.690;6.184;2022-09-27T07:16:25;10.20;99.90
53053;DHT22;38934;52.690;6.184;2022-09-27T07:18:50;10.10;99.90
53053;DHT22;38934;52.690;6.184;2022-09-27T07:21:17;10.40;99.90
53053;DHT22;38934;52.690;6.184;2022-09-27T07:23:42;10.00;99.90
53053;DHT22;38934;52.690;6.184;2022-09-27T07:26:08;10.40;99.90
53053;DHT22;38934;52.690;6.184;2022-09-27T07:28:34;10.20;99.90
53053;DHT22;38934;52.690;6.184;2022-09-27T07:31:01;10.80;99.90
53053;DHT22;38934;52.690;6.184;2022-09-27T07:33:27;10.40;99.90
53053;DHT22;38934;52.690;6.184;2022-09-27T07:35:52;10.60;99.90
53053;DHT22;38934;52.690;6.184;2022-09-27T07:38:18;11.00;99.90
53053;DHT22;38934;52.690;6.184;2022-09-27T07:40:44;10.70;99.90
53053;DHT22;38934;52.690;6.184;2022-09-27T07:43:09;10.90;99.90
53053;DHT22;38934;52.690;6.184;2022-09-27T07:45:36;11.30;99.90
53053;DHT22;38934;52.690;6.184;2022-09-27T07:48:05;11.20;99.90
53053;DHT22;38934;52.690;6.184;2022-09-27T07:50:31;11.30;99.90
53053;DHT22;38934;52.690;6.184;2022-09-27T07:52:57;11.70;99.90
53053;DHT22;38934;52.690;6.184;2022-09-27T07:55:23;11.40;99.90
53053;DHT22;38934;52.690;6.184;2022-09-27T07:57:48;11.40;99.90
53053;DHT22;38934;52.690;6.184;2022-09-27T08:00:15;11.40;99.90
53053;DHT22;38934;52.690;6.184;2022-09-27T08:02:41;11.40;99.90
53053;DHT22;38934;52.690;6.184;2022-09-27T08:05:08;11.40;99.90
53053;DHT22;38934;52.690;6.184;2022-09-27T08:07:33;11.40;99.90
53053;DHT22;38934;52.690;6.184;2022-09-27T08:09:59;11.30;99.90
53053;DHT22;38934;52.690;6.184;2022-09-27T08:12:24;11.50;99.90
53053;DHT22;38934;52.690;6.184;2022-09-27T08:14:50;11.20;99.90
53053;DHT22;38934;52.690;6.184;2022-09-27T08:17:17;11.20;99.90
53053;DHT22;38934;52.690;6.184;2022-09-27T08:19:43;11.20;99.90
53053;DHT22;38934;52.690;6.184;2022-09-27T08:22:10;11.20;99.90
53053;DHT22;38934;52.690;6.184;2022-09-27T08:24:38;11.30;99.90
53053;DHT22;38934;52.690;6.184;2022-09-27T08:27:04;11.30;99.90
53053;DHT22;38934;52.690;6.184;2022-09-27T08:29:31;12.00;99.90
53053;DHT22;38934;52.690;6.184;2022-09-27T08:31:56;11.50;99.90
53053;DHT22;38934;52.690;6.184;2022-09-27T08:34:22;11.60;99.90
53053;DHT22;38934;52.690;6.184;2022-09-27T08:36:47;11.70;99.90
53053;DHT22;38934;52.690;6.184;2022-09-27T08:39:13;12.10;99.90
53053;DHT22;38934;52.690;6.184;2022-09-27T08:41:42;11.80;99.90
53053;DHT22;38934;52.690;6.184;2022-09-27T08:44:23;11.80;99.90
53053;DHT22;38934;52.690;6.184;2022-09-27T08:46:56;11.80;99.90
53053;DHT22;38934;52.690;6.184;2022-09-27T08:49:27;12.10;99.90
53053;DHT22;38934;52.690;6.184;2022-09-27T08:51:55;12.20;99.90
53053;DHT22;38934;52.690;6.184;2022-09-27T08:54:23;11.90;99.90
53053;DHT22;38934;52.690;6.184;2022-09-27T08:56:51;11.90;99.90
53053;DHT22;38934;52.690;6.184;2022-09-27T08:59:21;11.80;99.90
53053;DHT22;38934;52.690;6.184;2022-09-27T09:01:50;11.70;99.90
53053;DHT22;38934;52.690;6.184;2022-09-27T09:07:19;11.60;99.90
53053;DHT22;38934;52.690;6.184;2022-09-27T09:12:56;11.60;99.90
53053;DHT22;38934;52.690;6.184;2022-09-27T09:20:33;11.80;99.90
53053;DHT22;38934;52.690;6.184;2022-09-27T09:33:29;11.90;99.90
53053;DHT22;38934;52.690;6.184;2022-09-27T09:36:19;11.90;99.90
53053;DHT22;38934;52.690;6.184;2022-09-27T09:38:50;11.90;99.90
53053;DHT22;38934;52.690;6.184;2022-09-27T09:48:59;12.10;99.90
53053;DHT22;38934;52.690;6.184;2022-09-27T09:51:33;12.10;99.90
53053;DHT22;38934;52.690;6.184;2022-09-27T09:54:05;12.10;99.90
53053;DHT22;38934;52.690;6.184;2022-09-27T09:56:33;12.20;99.90
53053;DHT22;38934;52.690;6.184;2022-09-27T09:59:04;12.40;99.90
53053;DHT22;38934;52.690;6.184;2022-09-27T10:01:38;12.50;99.90
53053;DHT22;38934;52.690;6.184;2022-09-27T10:04:04;12.70;99.90
53053;DHT22;38934;52.690;6.184;2022-09-27T10:06:30;12.70;99.90
53053;DHT22;38934;52.690;6.184;2022-09-27T10:08:56;12.90;99.90
53053;DHT22;38934;52.690;6.184;2022-09-27T10:11:24;13.60;99.90
53053;DHT22;38934;52.690;6.184;2022-09-27T10:13:49;12.90;99.90
53053;DHT22;38934;52.690;6.184;2022-09-27T10:16:16;12.90;99.90
53053;DHT22;38934;52.690;6.184;2022-09-27T10:18:43;12.90;99.90
53053;DHT22;38934;52.690;6.184;2022-09-27T10:21:11;12.80;99.90
53053;DHT22;38934;52.690;6.184;2022-09-27T10:24:00;12.60;99.90
53053;DHT22;38934;52.690;6.184;2022-09-27T10:26:23;12.60;99.90
53053;DHT22;38934;52.690;6.184;2022-09-27T10:28:49;12.40;99.90
53053;DHT22;38934;52.690;6.184;2022-09-27T10:31:16;12.10;99.90
53053;DHT22;38934;52.690;6.184;2022-09-27T10:33:59;11.80;99.90
53053;DHT22;38934;52.690;6.184;2022-09-27T10:36:27;11.40;99.90
53053;DHT22;38934;52.690;6.184;2022-09-27T10:38:54;11.20;99.90
53053;DHT22;38934;52.690;6.184;2022-09-27T10:41:24;11.00;99.90
53053;DHT22;38934;52.690;6.184;2022-09-27T10:43:51;11.00;99.90
53053;DHT22;38934;52.690;6.184;2022-09-27T10:46:20;11.70;99.90
53053;DHT22;38934;52.690;6.184;2022-09-27T10:48:49;11.40;99.90
53053;DHT22;38934;52.690;6.184;2022-09-27T10:51:31;11.20;99.90
53053;DHT22;38934;52.690;6.184;2022-09-27T10:53:57;11.20;99.90
53053;DHT22;38934;52.690;6.184;2022-09-27T10:56:28;11.20;99.90
53053;DHT22;38934;52.690;6.184;2022-09-27T10:58:55;11.80;99.90
53053;DHT22;38934;52.690;6.184;2022-09-27T11:01:21;11.80;99.90
53053;DHT22;38934;52.690;6.184;2022-09-27T11:03:48;11.50;99.90
53053;DHT22;38934;52.690;6.184;2022-09-27T11:06:18;11.80;99.90
53053;DHT22;38934;52.690;6.184;2022-09-27T11:08:44;11.70;99.90
53053;DHT22;38934;52.690;6.184;2022-09-27T11:13:38;11.90;99.90
53053;DHT22;38934;52.690;6.184;2022-09-27T11:16:09;11.70;99.90
53053;DHT22;38934;52.690;6.184;2022-09-27T11:28:43;12.10;99.90
53053;DHT22;38934;52.690;6.184;2022-09-27T11:31:27;12.20;99.90
53053;DHT22;38934;52.690;6.184;2022-09-27T11:49:39;12.70;99.90
53053;DHT22;38934;52.690;6.184;2022-09-27T11:54:42;12.90;99.90
53053;DHT22;38934;52.690;6.184;2022-09-27T11:57:26;13.00;99.90
53053;DHT22;38934;52.690;6.184;2022-09-27T12:00:11;13.00;99.90
53053;DHT22;38934;52.690;6.184;2022-09-27T12:02:44;13.10;99.90
53053;DHT22;38934;52.690;6.184;2022-09-27T12:10:15;13.10;99.90
53053;DHT22;38934;52.690;6.184;2022-09-27T12:12:42;13.10;99.90
53053;DHT22;38934;52.690;6.184;2022-09-27T12:15:17;13.20;99.90
53053;DHT22;38934;52.690;6.184;2022-09-27T12:17:44;13.10;99.90
53053;DHT22;38934;52.690;6.184;2022-09-27T12:20:30;13.20;99.90
53053;DHT22;38934;52.690;6.184;2022-09-27T12:23:02;13.20;99.90
53053;DHT22;38934;52.690;6.184;2022-09-27T12:25:31;13.30;99.90
53053;DHT22;38934;52.690;6.184;2022-09-27T12:28:07;13.20;99.90
53053;DHT22;38934;52.690;6.184;2022-09-27T12:30:34;13.20;99.90
53053;DHT22;38934;52.690;6.184;2022-09-27T12:33:07;13.10;99.90
53053;DHT22;38934;52.690;6.184;2022-09-27T12:35:45;12.90;99.90
53053;DHT22;38934;52.690;6.184;2022-09-27T12:38:16;12.60;99.90
53053;DHT22;38934;52.690;6.184;2022-09-27T12:40:49;12.20;99.90
53053;DHT22;38934;52.690;6.184;2022-09-27T12:43:19;11.90;99.90
53053;DHT22;38934;52.690;6.184;2022-09-27T12:51:05;11.60;99.90
53053;DHT22;38934;52.690;6.184;2022-09-27T12:56:23;11.80;99.90
53053;DHT22;38934;52.690;6.184;2022-09-27T13:01:34;11.90;99.90
53053;DHT22;38934;52.690;6.184;2022-09-27T13:09:21;11.80;99.90
53053;DHT22;38934;52.690;6.184;2022-09-27T13:12:08;11.70;99.90
53053;DHT22;38934;52.690;6.184;2022-09-27T13:14:43;11.60;99.90
53053;DHT22;38934;52.690;6.184;2022-09-27T13:19:55;11.40;99.90
53053;DHT22;38934;52.690;6.184;2022-09-27T13:24:52;11.20;99.90
53053;DHT22;38934;52.690;6.184;2022-09-27T13:29:46;11.20;99.90
53053;DHT22;38934;52.690;6.184;2022-09-27T13:32:19;11.20;99.90
53053;DHT22;38934;52.690;6.184;2022-09-27T13:34:49;11.20;99.90
53053;DHT22;38934;52.690;6.184;2022-09-27T13:42:39;11.40;99.90
53053;DHT22;38934;52.690;6.184;2022-09-27T13:45:18;11.40;99.90
53053;DHT22;38934;52.690;6.184;2022-09-27T13:47:44;11.40;99.90
53053;DHT22;38934;52.690;6.184;2022-09-27T13:50:36;11.40;99.90
53053;DHT22;38934;52.690;6.184;2022-09-27T13:53:36;11.60;99.90
53053;DHT22;38934;52.690;6.184;2022-09-27T13:55:53;11.70;99.90
53053;DHT22;38934;52.690;6.184;2022-09-27T13:58:36;11.70;99.90
53053;DHT22;38934;52.690;6.184;2022-09-27T14:01:09;11.60;99.90
53053;DHT22;38934;52.690;6.184;2022-09-27T14:03:36;11.60;99.90
53053;DHT22;38934;52.690;6.184;2022-09-27T14:06:05;11.60;99.90
53053;DHT22;38934;52.690;6.184;2022-09-27T14:09:05;11.60;99.90
53053;DHT22;38934;52.690;6.184;2022-09-27T14:11:25;11.60;99.90
53053;DHT22;38934;52.690;6.184;2022-09-27T14:13:52;11.60;99.90
53053;DHT22;38934;52.690;6.184;2022-09-27T14:16:17;11.60;99.90
53053;DHT22;38934;52.690;6.184;2022-09-27T14:18:46;12.10;99.90
53053;DHT22;38934;52.690;6.184;2022-09-27T14:23:53;11.60;99.90
53053;DHT22;38934;52.690;6.184;2022-09-27T14:26:25;11.60;99.90
53053;DHT22;38934;52.690;6.184;2022-09-27T14:28:51;11.60;99.90
53053;DHT22;38934;52.690;6.184;2022-09-27T14:31:18;11.50;99.90
53053;DHT22;38934;52.690;6.184;2022-09-27T14:33:45;11.50;99.90
53053;DHT22;38934;52.690;6.184;2022-09-27T14:36:25;11.40;99.90
53053;DHT22;38934;52.690;6.184;2022-09-27T14:39:13;11.40;99.90
53053;DHT22;38934;52.690;6.184;2022-09-27T14:41:39;11.40;99.90
53053;DHT22;38934;52.690;6.184;2022-09-27T14:44:11;11.40;99.90
53053;DHT22;38934;52.690;6.184;2022-09-27T14:46:37;11.40;99.90
53053;DHT22;38934;52.690;6.184;2022-09-27T14:49:22;11.40;99.90
53053;DHT22;38934;52.690;6.184;2022-09-27T14:51:51;11.40;99.90
53053;DHT22;38934;52.690;6.184;2022-09-27T14:54:24;11.30;99.90
53053;DHT22;38934;52.690;6.184;2022-09-27T14:56:51;11.30;99.90
53053;DHT22;38934;52.690;6.184;2022-09-27T14:59:28;11.20;99.90
53053;DHT22;38934;52.690;6.184;2022-09-27T15:01:58;11.20;99.90
53053;DHT22;38934;52.690;6.184;2022-09-27T15:04:25;11.20;99.90
53053;DHT22;38934;52.690;6.184;2022-09-27T15:06:51;11.00;99.90
53053;DHT22;38934;52.690;6.184;2022-09-27T15:09:17;11.60;99.90
53053;DHT22;38934;52.690;6.184;2022-09-27T15:11:43;11.00;99.90
53053;DHT22;38934;52.690;6.184;2022-09-27T15:14:13;11.00;99.90
53053;DHT22;38934;52.690;6.184;2022-09-27T15:16:40;11.00;99.90
53053;DHT22;38934;52.690;6.184;2022-09-27T15:19:13;11.00;99.90
53053;DHT22;38934;52.690;6.184;2022-09-27T15:21:40;11.00;99.90
53053;DHT22;38934;52.690;6.184;2022-09-27T15:24:32;11.10;99.90
53053;DHT22;38934;52.690;6.184;2022-09-27T15:26:51;11.10;99.90
53053;DHT22;38934;52.690;6.184;2022-09-27T15:29:23;11.10;99.90
53053;DHT22;38934;52.690;6.184;2022-09-27T15:34:24;11.20;99.90
53053;DHT22;38934;52.690;6.184;2022-09-27T15:36:56;11.20;99.90
53053;DHT22;38934;52.690;6.184;2022-09-27T15:39:26;11.20;99.90
53053;DHT22;38934;52.690;6.184;2022-09-27T15:50:41;11.10;99.90
53053;DHT22;38934;52.690;6.184;2022-09-27T15:52:46;11.10;99.90
53053;DHT22;38934;52.690;6.184;2022-09-27T15:55:15;11.00;99.90
53053;DHT22;38934;52.690;6.184;2022-09-27T15:57:42;11.00;99.90
53053;DHT22;38934;52.690;6.184;2022-09-27T16:00:12;10.90;99.90
53053;DHT22;38934;52.690;6.184;2022-09-27T16:02:38;10.90;99.90
53053;DHT22;38934;52.690;6.184;2022-09-27T16:05:03;10.80;99.90
53053;DHT22;38934;52.690;6.184;2022-09-27T16:07:29;10.80;99.90
53053;DHT22;38934;52.690;6.184;2022-09-27T16:09:54;10.70;99.90
53053;DHT22;38934;52.690;6.184;2022-09-27T16:12:20;10.70;99.90
53053;DHT22;38934;52.690;6.184;2022-09-27T16:14:46;10.70;99.90
53053;DHT22;38934;52.690;6.184;2022-09-27T16:17:12;10.70;99.90
53053;DHT22;38934;52.690;6.184;2022-09-27T16:19:38;10.70;99.90
53053;DHT22;38934;52.690;6.184;2022-09-27T16:22:03;10.60;99.90
53053;DHT22;38934;52.690;6.184;2022-09-27T16:24:30;10.60;99.90
53053;DHT22;38934;52.690;6.184;2022-09-27T16:26:56;10.70;99.90
53053;DHT22;38934;52.690;6.184;2022-09-27T16:29:22;10.80;99.90
53053;DHT22;38934;52.690;6.184;2022-09-27T16:31:47;10.50;99.90
53053;DHT22;38934;52.690;6.184;2022-09-27T16:34:13;10.40;99.90
53053;DHT22;38934;52.690;6.184;2022-09-27T16:36:39;10.40;99.90
53053;DHT22;38934;52.690;6.184;2022-09-27T16:39:05;10.40;99.90
53053;DHT22;38934;52.690;6.184;2022-09-27T16:41:31;10.30;99.90
53053;DHT22;38934;52.690;6.184;2022-09-27T16:43:57;10.30;99.90
53053;DHT22;38934;52.690;6.184;2022-09-27T16:46:23;10.30;99.90
53053;DHT22;38934;52.690;6.184;2022-09-27T16:48:49;10.20;99.90
53053;DHT22;38934;52.690;6.184;2022-09-27T16:51:19;10.20;99.90
53053;DHT22;38934;52.690;6.184;2022-09-27T16:54:03;10.20;99.90
53053;DHT22;38934;52.690;6.184;2022-09-27T16:56:33;10.10;99.90
53053;DHT22;38934;52.690;6.184;2022-09-27T16:58:59;10.10;99.90
53053;DHT22;38934;52.690;6.184;2022-09-27T17:01:27;10.10;99.90
53053;DHT22;38934;52.690;6.184;2022-09-27T17:03:53;10.00;99.90
53053;DHT22;38934;52.690;6.184;2022-09-27T17:06:19;10.00;99.90
53053;DHT22;38934;52.690;6.184;2022-09-27T17:08:45;10.60;99.90
53053;DHT22;38934;52.690;6.184;2022-09-27T17:11:11;10.10;99.90
53053;DHT22;38934;52.690;6.184;2022-09-27T17:13:39;9.80;99.90
53053;DHT22;38934;52.690;6.184;2022-09-27T17:16:04;9.80;99.90
53053;DHT22;38934;52.690;6.184;2022-09-27T17:18:30;9.80;99.90
53053;DHT22;38934;52.690;6.184;2022-09-27T17:21:02;9.70;99.90
53053;DHT22;38934;52.690;6.184;2022-09-27T17:23:31;9.70;99.90
53053;DHT22;38934;52.690;6.184;2022-09-27T17:26:05;9.70;99.90
53053;DHT22;38934;52.690;6.184;2022-09-27T17:28:31;9.60;99.90
53053;DHT22;38934;52.690;6.184;2022-09-27T17:31:03;9.60;99.90
53053;DHT22;38934;52.690;6.184;2022-09-27T17:33:29;9.60;99.90
53053;DHT22;38934;52.690;6.184;2022-09-27T17:35:59;9.70;99.90
53053;DHT22;38934;52.690;6.184;2022-09-27T17:38:26;9.50;99.90
53053;DHT22;38934;52.690;6.184;2022-09-27T17:40:59;9.50;99.90
53053;DHT22;38934;52.690;6.184;2022-09-27T17:43:26;9.50;99.90
53053;DHT22;38934;52.690;6.184;2022-09-27T17:45:51;9.40;99.90
53053;DHT22;38934;52.690;6.184;2022-09-27T17:48:17;9.60;99.90
53053;DHT22;38934;52.690;6.184;2022-09-27T17:51:01;9.40;99.90
53053;DHT22;38934;52.690;6.184;2022-09-27T17:53:28;9.30;99.90
53053;DHT22;38934;52.690;6.184;2022-09-27T17:55:59;9.30;99.90
53053;DHT22;38934;52.690;6.184;2022-09-27T17:58:24;9.40;99.90
53053;DHT22;38934;52.690;6.184;2022-09-27T18:00:50;9.50;99.90
53053;DHT22;38934;52.690;6.184;2022-09-27T18:03:16;10.20;99.90
53053;DHT22;38934;52.690;6.184;2022-09-27T18:05:42;10.10;99.90
53053;DHT22;38934;52.690;6.184;2022-09-27T18:08:07;9.30;99.90
53053;DHT22;38934;52.690;6.184;2022-09-27T18:10:33;9.20;99.90
53053;DHT22;38934;52.690;6.184;2022-09-27T18:12:59;9.20;99.90
53053;DHT22;38934;52.690;6.184;2022-09-27T18:15:25;9.10;99.90
53053;DHT22;38934;52.690;6.184;2022-09-27T18:17:50;9.10;99.90
53053;DHT22;38934;52.690;6.184;2022-09-27T18:20:16;9.00;99.90
53053;DHT22;38934;52.690;6.184;2022-09-27T18:22:42;9.30;99.90